createdAt,value
2019-04-07T00:00:50.531Z,31.67
2019-04-07T00:03:53.199Z,29.63
2019-04-07T00:06:56.046Z,32.87
2019-04-07T00:09:58.308Z,31.67
2019-04-07T00:13:00.219Z,34.87
2019-04-07T00:16:03.555Z,33.27
2019-04-07T00:19:05.515Z,34.63
2019-04-07T00:22:07.947Z,33.30
2019-04-07T00:25:10.563Z,33.87
2019-04-07T00:28:12.850Z,35.13
2019-04-07T00:31:14.798Z,35.63
2019-04-07T00:34:17.471Z,36.07
2019-04-07T00:37:19.773Z,34.23
2019-04-07T00:40:22.400Z,35.00
2019-04-07T00:43:24.477Z,32.37
2019-04-07T00:46:26.851Z,30.43
2019-04-07T00:49:29.683Z,32.53
2019-04-07T00:52:31.749Z,32.70
2019-04-07T00:55:34.291Z,31.23
2019-04-07T00:58:36.939Z,31.70
2019-04-07T01:01:39.181Z,30.27
2019-04-07T01:04:41.907Z,31.90
2019-04-07T01:07:43.933Z,29.73
2019-04-07T01:10:45.979Z,32.03
2019-04-07T01:13:48.052Z,32.83
2019-04-07T01:16:50.662Z,31.10
2019-04-07T01:19:53.561Z,34.60
2019-04-07T01:22:56.143Z,35.00
2019-04-07T01:25:58.991Z,36.20
2019-04-07T01:29:01.449Z,32.57
2019-04-07T01:32:03.821Z,32.83
2019-04-07T01:35:07.024Z,30.77
2019-04-07T01:38:09.192Z,33.83
2019-04-07T01:41:22.796Z,39.30
2019-04-07T01:44:39.003Z,37.17
2019-04-07T01:47:45.642Z,31.20
2019-04-07T01:50:58.362Z,30.40
2019-04-07T01:54:02.140Z,33.30
2019-04-07T01:57:23.501Z,32.70
2019-04-07T02:00:30.551Z,30.00
2019-04-07T02:03:51.232Z,31.93
2019-04-07T02:06:57.973Z,30.43
2019-04-07T02:10:05.278Z,33.67
2019-04-07T02:13:15.405Z,35.20
2019-04-07T02:16:28.585Z,36.87
2019-04-07T02:19:35.942Z,32.33
2019-04-07T02:22:52.119Z,33.33
2019-04-07T02:26:02.392Z,33.17
2019-04-07T02:29:12.610Z,32.07
2019-04-07T02:32:17.400Z,32.23
2019-04-07T02:35:34.522Z,32.43
2019-04-07T02:38:56.793Z,31.20
2019-04-07T02:42:00.550Z,34.57
2019-04-07T02:45:13.795Z,33.57
2019-04-07T02:48:26.685Z,33.47
2019-04-07T02:51:36.359Z,33.83
2019-04-07T02:54:49.678Z,31.03
2019-04-07T02:58:10.295Z,31.63
2019-04-07T03:01:26.751Z,31.47
2019-04-07T03:04:41.484Z,33.87
2019-04-07T03:08:02.113Z,33.40
2019-04-07T03:11:14.801Z,37.37
2019-04-07T03:14:28.373Z,37.97
2019-04-07T03:17:32.274Z,40.43
2019-04-07T03:20:36.222Z,38.20
2019-04-07T03:23:56.724Z,40.07
2019-04-07T03:27:06.689Z,41.00
2019-04-07T03:30:11.490Z,45.23
2019-04-07T03:33:33.508Z,42.77
2019-04-07T03:37:16.930Z,43.50
2019-04-07T03:40:00.893Z,42.80
2019-04-07T03:43:14.053Z,44.30
2019-04-07T03:46:30.029Z,41.50
2019-04-07T03:49:45.754Z,41.70
2019-04-07T03:52:52.517Z,41.77
2019-04-07T03:55:56.247Z,40.20
2019-04-07T03:59:05.599Z,39.67
2019-04-07T04:02:12.559Z,41.50
2019-04-07T04:05:22.211Z,42.60
2019-04-07T04:08:32.735Z,43.40
2019-04-07T04:11:40.631Z,43.27
2019-04-07T04:15:01.613Z,40.37
2019-04-07T04:18:03.847Z,39.50
2019-04-07T04:21:06.975Z,39.73
2019-04-07T04:24:09.285Z,38.17
2019-04-07T04:27:12.723Z,37.03
2019-04-07T04:30:14.927Z,39.47
2019-04-07T04:33:17.861Z,42.73
2019-04-07T04:36:20.027Z,42.53
2019-04-07T04:39:22.887Z,40.47
2019-04-07T04:42:25.340Z,42.63
2019-04-07T04:45:27.581Z,43.40
2019-04-07T04:48:30.000Z,42.20
2019-04-07T04:51:35.456Z,42.37
2019-04-07T04:54:36.240Z,40.03
2019-04-07T04:57:38.276Z,40.40
2019-04-07T05:00:41.294Z,42.87
2019-04-07T05:03:43.649Z,40.80
2019-04-07T05:06:46.488Z,42.10
2019-04-07T05:09:52.874Z,38.37
2019-04-07T05:12:52.619Z,37.67
2019-04-07T05:15:54.715Z,33.97
2019-04-07T05:18:57.328Z,34.07
2019-04-07T05:21:59.862Z,34.30
2019-04-07T05:25:02.293Z,30.67
2019-04-07T05:28:04.674Z,29.57
2019-04-07T05:31:07.329Z,30.13
2019-04-07T05:34:09.383Z,31.43
2019-04-07T05:37:11.468Z,31.00
2019-04-07T05:40:14.032Z,29.63
2019-04-07T05:43:16.200Z,29.53
2019-04-07T05:46:18.204Z,29.00
2019-04-07T05:49:22.574Z,30.47
2019-04-07T05:52:24.115Z,28.13
2019-04-07T05:55:27.280Z,29.13
2019-04-07T05:58:29.471Z,26.97
2019-04-07T06:01:32.086Z,27.70
2019-04-07T06:04:34.801Z,27.13
2019-04-07T06:07:37.806Z,28.03
2019-04-07T06:10:40.343Z,27.63
2019-04-07T06:13:44.644Z,26.80
2019-04-07T06:16:46.815Z,28.03
2019-04-07T06:19:51.239Z,28.03
2019-04-07T06:22:54.454Z,26.73
2019-04-07T06:25:58.964Z,26.13
2019-04-07T06:29:00.711Z,26.40
2019-04-07T06:32:05.128Z,27.70
2019-04-07T06:35:07.422Z,24.87
2019-04-07T06:38:09.508Z,24.40
2019-04-07T06:41:11.541Z,23.73
2019-04-07T06:44:18.337Z,24.70
2019-04-07T06:47:22.180Z,26.37
2019-04-07T06:50:49.310Z,26.30
2019-04-07T06:53:57.891Z,26.57
2019-04-07T06:57:05.016Z,26.87
2019-04-07T07:00:14.001Z,26.77
2019-04-07T07:03:23.912Z,29.47
2019-04-07T07:06:47.095Z,33.27
2019-04-07T07:10:06.957Z,29.53
2019-04-07T07:13:26.518Z,26.03
2019-04-07T07:16:22.832Z,24.63
2019-04-07T07:19:45.118Z,23.70
2019-04-07T07:22:49.606Z,25.00
2019-04-07T07:25:52.027Z,26.20
2019-04-07T07:28:54.355Z,25.93
2019-04-07T07:32:02.480Z,25.90
2019-04-07T07:35:00.712Z,27.83
2019-04-07T07:38:03.996Z,25.70
2019-04-07T07:41:06.359Z,28.47
2019-04-07T07:44:09.733Z,28.60
2019-04-07T07:47:11.982Z,29.83
2019-04-07T07:50:13.932Z,30.03
2019-04-07T07:53:15.926Z,29.90
2019-04-07T07:56:18.404Z,30.47
2019-04-07T07:59:20.364Z,32.17
2019-04-07T08:02:22.350Z,31.90
2019-04-07T08:05:24.815Z,32.87
2019-04-07T08:08:27.651Z,32.17
2019-04-07T08:11:32.911Z,30.80
2019-04-07T08:14:33.647Z,30.43
2019-04-07T08:17:35.720Z,31.93
2019-04-07T08:20:38.458Z,25.93
2019-04-07T08:23:43.031Z,27.27
2019-04-07T08:26:44.813Z,31.40
2019-04-07T08:29:47.426Z,30.23
2019-04-07T08:32:50.068Z,29.70
2019-04-07T08:35:54.857Z,31.03
2019-04-07T08:38:57.145Z,31.33
2019-04-07T08:41:59.456Z,30.40
2019-04-07T08:45:01.664Z,31.23
2019-04-07T08:48:05.149Z,32.63
2019-04-07T08:51:08.493Z,31.23
2019-04-07T08:54:11.727Z,32.57
2019-04-07T08:57:15.276Z,30.83
2019-04-07T09:00:20.279Z,31.47
2019-04-07T09:03:23.174Z,32.57
2019-04-07T09:06:28.560Z,33.13
2019-04-07T09:09:34.029Z,33.30
2019-04-07T09:12:35.030Z,33.17
2019-04-07T09:15:43.071Z,32.50
2019-04-07T09:19:03.833Z,32.97
2019-04-07T09:22:06.290Z,33.37
2019-04-07T09:25:19.362Z,32.97
2019-04-07T09:28:29.834Z,31.80
2019-04-07T09:31:39.941Z,32.23
2019-04-07T09:34:50.458Z,34.87
2019-04-07T09:38:09.844Z,32.73
2019-04-07T09:41:27.385Z,33.73
2019-04-07T09:44:33.999Z,36.80
2019-04-07T09:47:38.024Z,35.60
2019-04-07T09:50:45.035Z,34.80
2019-04-07T09:53:52.222Z,34.13
2019-04-07T09:56:56.309Z,34.60
2019-04-07T10:00:16.081Z,35.23
2019-04-07T10:03:38.094Z,33.93
2019-04-07T10:06:42.190Z,35.97
2019-04-07T10:10:05.462Z,32.80
2019-04-07T10:12:58.399Z,33.97
2019-04-07T10:16:14.862Z,33.03
2019-04-07T10:19:36.299Z,34.83
2019-04-07T10:22:42.947Z,30.97
2019-04-07T10:25:56.156Z,33.37
2019-04-07T10:29:18.706Z,33.70
2019-04-07T10:32:34.624Z,32.73
2019-04-07T10:35:47.804Z,30.47
2019-04-07T10:38:55.324Z,37.43
2019-04-07T10:42:16.843Z,36.57
2019-04-07T10:45:29.884Z,32.50
2019-04-07T10:48:48.753Z,35.17
2019-04-07T10:52:07.799Z,35.27
2019-04-07T10:55:17.794Z,34.47
2019-04-07T10:58:39.246Z,32.97
2019-04-07T11:01:46.128Z,34.83
2019-04-07T11:04:52.873Z,30.73
2019-04-07T11:07:56.998Z,31.80
2019-04-07T11:11:04.554Z,32.33
2019-04-07T11:14:11.316Z,33.93
2019-04-07T11:17:21.564Z,31.67
2019-04-07T11:20:29.957Z,30.50
2019-04-07T11:23:50.434Z,31.73
2019-04-07T11:27:03.439Z,30.17
2019-04-07T11:30:08.177Z,26.77
2019-04-07T11:33:21.034Z,26.20
2019-04-07T11:36:31.041Z,26.23
2019-04-07T11:39:50.029Z,28.17
2019-04-07T11:42:56.751Z,24.60
2019-04-07T11:46:04.549Z,22.47
2019-04-07T11:49:13.374Z,22.63
2019-04-07T11:52:17.988Z,22.63
2019-04-07T11:55:31.359Z,23.57
2019-04-07T11:58:54.122Z,22.57
2019-04-07T12:02:01.911Z,20.87
2019-04-07T12:05:25.111Z,22.37
2019-04-07T12:08:45.718Z,24.90
2019-04-07T12:11:52.669Z,24.97
2019-04-07T12:14:56.653Z,24.63
2019-04-07T12:18:00.568Z,25.90
2019-04-07T12:21:07.207Z,27.43
2019-04-07T12:24:10.657Z,24.70
2019-04-07T12:27:17.287Z,25.87
2019-04-07T12:30:25.031Z,24.27
2019-04-07T12:33:32.809Z,26.40
2019-04-07T12:36:52.002Z,24.77
2019-04-07T12:39:55.859Z,25.07
2019-04-07T12:43:15.525Z,25.57
2019-04-07T12:46:36.535Z,25.73
2019-04-07T12:49:46.936Z,24.87
2019-04-07T12:53:07.998Z,25.27
2019-04-07T12:56:15.673Z,26.77
2019-04-07T12:59:25.572Z,25.83
2019-04-07T13:02:36.043Z,26.13
2019-04-07T13:05:42.770Z,24.93
2019-04-07T13:08:46.845Z,24.83
2019-04-07T13:12:05.900Z,27.20
2019-04-07T13:15:16.071Z,27.00
2019-04-07T13:18:19.813Z,27.60
2019-04-07T13:21:39.234Z,24.97
2019-04-07T13:25:00.223Z,27.43
2019-04-07T13:28:04.231Z,25.50
2019-04-07T13:31:17.863Z,24.80
2019-04-07T13:34:34.144Z,25.70
2019-04-07T13:37:38.390Z,25.63
2019-04-07T13:41:00.591Z,25.27
2019-04-07T13:44:07.747Z,25.40
2019-04-07T13:47:24.115Z,26.50
2019-04-07T13:50:44.938Z,24.63
2019-04-07T13:54:05.528Z,25.93
2019-04-07T13:57:26.395Z,25.77
2019-04-07T14:00:48.600Z,27.97
2019-04-07T14:03:56.517Z,25.70
2019-04-07T14:07:16.954Z,25.97
2019-04-07T14:10:37.344Z,25.73
2019-04-07T14:13:44.775Z,25.97
2019-04-07T14:17:07.328Z,27.23
2019-04-07T14:20:24.665Z,28.23
2019-04-07T14:23:28.694Z,26.73
2019-04-07T14:26:44.563Z,25.87
2019-04-07T14:29:57.682Z,27.17
2019-04-07T14:33:18.106Z,24.57
2019-04-07T14:36:21.875Z,26.73
2019-04-07T14:39:43.387Z,24.90
2019-04-07T14:42:47.444Z,24.60
2019-04-07T14:45:57.953Z,24.83
2019-04-07T14:49:13.461Z,26.43
2019-04-07T14:52:16.948Z,24.33
2019-04-07T14:55:20.757Z,25.97
2019-04-07T14:58:24.732Z,26.57
2019-04-07T15:01:34.822Z,25.77
2019-04-07T15:04:41.928Z,27.30
2019-04-07T15:07:57.863Z,25.63
2019-04-07T15:11:03.306Z,25.67
2019-04-07T15:14:06.166Z,27.33
2019-04-07T15:17:09.457Z,26.53
2019-04-07T15:20:14.379Z,25.50
2019-04-07T15:23:16.519Z,26.50
2019-04-07T15:26:19.307Z,26.37
2019-04-07T15:29:22.114Z,25.87
2019-04-07T15:32:28.071Z,26.37
2019-04-07T15:35:28.357Z,25.43
2019-04-07T15:38:31.271Z,27.73
2019-04-07T15:41:33.714Z,25.83
2019-04-07T15:44:37.175Z,25.33
2019-04-07T15:47:40.438Z,26.00
2019-04-07T15:50:42.752Z,27.57
2019-04-07T15:53:50.296Z,26.07
2019-04-07T15:56:50.249Z,24.67
2019-04-07T15:59:52.601Z,26.93
2019-04-07T16:02:54.895Z,25.53
2019-04-07T16:05:58.068Z,24.83
2019-04-07T16:09:01.159Z,26.60
2019-04-07T16:12:06.394Z,25.17
2019-04-07T16:15:09.743Z,24.73
2019-04-07T16:18:12.671Z,24.73
2019-04-07T16:21:14.716Z,24.87
2019-04-07T16:24:16.775Z,26.07
2019-04-07T16:27:19.293Z,27.60
2019-04-07T16:30:23.232Z,25.70
2019-04-07T16:33:26.155Z,25.57
2019-04-07T16:36:28.283Z,25.50
2019-04-07T16:39:33.502Z,26.60
2019-04-07T16:42:34.244Z,25.00
2019-04-07T16:45:36.713Z,24.27
2019-04-07T16:48:40.242Z,25.87
2019-04-07T16:51:42.786Z,25.97
2019-04-07T16:54:45.789Z,25.73
2019-04-07T16:57:48.236Z,26.20
2019-04-07T17:00:50.347Z,25.67
2019-04-07T17:03:52.410Z,25.93
2019-04-07T17:07:03.276Z,26.43
2019-04-07T17:10:02.421Z,26.27
2019-04-07T17:13:16.961Z,25.93
2019-04-07T17:16:12.199Z,25.50
2019-04-07T17:19:16.174Z,25.63
2019-04-07T17:22:19.764Z,29.50
2019-04-07T17:25:22.804Z,28.13
2019-04-07T17:28:25.063Z,27.30
2019-04-07T17:31:29.991Z,27.83
2019-04-07T17:34:32.552Z,27.97
2019-04-07T17:37:37.401Z,26.53
2019-04-07T17:40:47.005Z,26.83
2019-04-07T17:43:59.039Z,27.67
2019-04-07T17:47:04.149Z,25.07
2019-04-07T17:50:16.773Z,27.53
2019-04-07T17:53:21.264Z,27.03
2019-04-07T17:56:42.844Z,27.30
2019-04-07T17:59:52.082Z,26.30
2019-04-07T18:03:15.332Z,27.20
2019-04-07T18:06:19.911Z,28.73
2019-04-07T18:09:24.802Z,25.53
2019-04-07T18:12:34.700Z,27.07
2019-04-07T18:15:43.404Z,28.30
2019-04-07T18:18:59.167Z,26.63
2019-04-07T18:22:02.390Z,27.47
2019-04-07T18:25:17.369Z,25.80
2019-04-07T18:28:25.960Z,25.53
2019-04-07T18:31:45.468Z,24.87
2019-04-07T18:34:49.661Z,25.00
2019-04-07T18:38:11.185Z,25.43
2019-04-07T18:41:20.638Z,26.37
2019-04-07T18:44:41.022Z,26.67
2019-04-07T18:47:59.934Z,25.87
2019-04-07T18:51:19.902Z,26.13
2019-04-07T18:54:25.016Z,26.47
2019-04-07T18:57:46.666Z,24.97
2019-04-07T19:01:08.778Z,26.80
2019-04-07T19:04:30.432Z,26.47
2019-04-07T19:07:37.939Z,26.93
2019-04-07T19:10:42.527Z,27.63
2019-04-07T19:13:59.455Z,26.77
2019-04-07T19:17:00.824Z,29.87
2019-04-07T19:20:12.992Z,31.37
2019-04-07T19:23:24.224Z,30.77
2019-04-07T19:26:41.022Z,42.03
2019-04-07T19:29:57.448Z,47.80
2019-04-07T19:33:02.839Z,49.33
2019-04-07T19:36:18.052Z,48.60
2019-04-07T19:39:32.864Z,49.37
2019-04-07T19:42:48.166Z,35.17
2019-04-07T19:46:07.107Z,35.27
2019-04-07T19:49:21.736Z,37.43
2019-04-07T19:52:27.753Z,35.03
2019-04-07T19:55:32.464Z,40.40
2019-04-07T19:58:55.711Z,41.93
2019-04-07T20:02:11.864Z,43.63
2019-04-07T20:05:21.588Z,47.43
2019-04-07T20:08:44.101Z,55.30
2019-04-07T20:11:51.438Z,56.93
2019-04-07T20:15:08.836Z,56.83
2019-04-07T20:18:28.335Z,45.87
2019-04-07T20:21:53.244Z,49.07
2019-04-07T20:25:15.986Z,53.43
2019-04-07T20:28:35.847Z,51.30
2019-04-07T20:31:53.692Z,51.37
2019-04-07T20:35:01.282Z,51.90
2019-04-07T20:38:07.787Z,47.57
2019-04-07T20:41:26.761Z,53.07
2019-04-07T20:44:58.507Z,54.67
2019-04-07T20:48:08.079Z,51.87
2019-04-07T20:51:17.385Z,58.87
2019-04-07T20:54:31.501Z,56.77
2019-04-07T20:57:48.203Z,56.40
2019-04-07T21:01:04.637Z,59.13
2019-04-07T21:04:19.929Z,54.67
2019-04-07T21:07:42.885Z,54.80
2019-04-07T21:10:47.285Z,53.03
2019-04-07T21:13:54.566Z,53.27
2019-04-07T21:17:15.470Z,48.93
2019-04-07T21:20:20.097Z,52.23
2019-04-07T21:23:31.610Z,47.13
2019-04-07T21:26:35.980Z,46.60
2019-04-07T21:29:57.988Z,46.93
2019-04-07T21:33:11.163Z,45.50
2019-04-07T21:36:17.931Z,43.10
2019-04-07T21:39:34.399Z,44.03
2019-04-07T21:42:41.252Z,47.03
2019-04-07T21:45:53.343Z,48.77
2019-04-07T21:49:13.854Z,52.77
2019-04-07T21:52:23.056Z,58.37
2019-04-07T21:55:26.535Z,53.10
2019-04-07T21:58:34.333Z,55.40
2019-04-07T22:01:44.077Z,53.40
2019-04-07T22:05:00.764Z,54.33
2019-04-07T22:08:10.505Z,53.97
2019-04-07T22:11:09.264Z,55.60
2019-04-07T22:14:14.669Z,54.33
2019-04-07T22:17:16.931Z,56.87
2019-04-07T22:20:20.382Z,56.67
2019-04-07T22:23:23.026Z,59.73
2019-04-07T22:26:24.955Z,55.30
2019-04-07T22:29:26.890Z,56.73
2019-04-07T22:32:28.943Z,52.27
2019-04-07T22:35:30.845Z,52.77
2019-04-07T22:38:33.621Z,53.30
2019-04-07T22:41:36.976Z,56.90
2019-04-07T22:44:39.841Z,54.47
2019-04-07T22:47:41.887Z,53.87
2019-04-07T22:50:43.929Z,52.13
2019-04-07T22:53:45.902Z,52.93
2019-04-07T22:56:48.622Z,51.40
2019-04-07T22:59:50.744Z,51.53
2019-04-07T23:02:52.779Z,54.77
2019-04-07T23:05:55.484Z,57.63
2019-04-07T23:08:57.516Z,54.87
2019-04-07T23:12:01.738Z,54.70
2019-04-07T23:15:06.350Z,57.77
2019-04-07T23:18:08.267Z,54.37
2019-04-07T23:21:10.182Z,45.17
2019-04-07T23:24:12.928Z,47.63
2019-04-07T23:27:15.341Z,54.70
2019-04-07T23:30:21.447Z,49.43
2019-04-07T23:33:23.403Z,47.03
2019-04-07T23:36:26.356Z,52.33
2019-04-07T23:39:29.257Z,56.50
2019-04-07T23:42:31.549Z,50.33
2019-04-07T23:45:33.741Z,54.50
2019-04-07T23:48:35.792Z,56.90
2019-04-07T23:51:37.859Z,59.23
2019-04-07T23:54:39.828Z,60.23
2019-04-07T23:57:42.358Z,61.93
